sensor_id;sensor_type;location;lat;lon;timestamp;pressure;altitude;pressure_sealevel;temperature;humidity
21431;BME280;10876;49.038;10.608;2022-08-19T00:00:16;97730.59;;;19.91;100.00
21431;BME280;10876;49.038;10.608;2022-08-19T00:02:44;97714.72;;;19.92;100.00
21431;BME280;10876;49.038;10.608;2022-08-19T00:05:13;97717.88;;;20.01;100.00
21431;BME280;10876;49.038;10.608;2022-08-19T00:07:42;97708.38;;;19.95;100.00
21431;BME280;10876;49.038;10.608;2022-08-19T00:10:12;97686.91;;;19.95;100.00
21431;BME280;10876;49.038;10.608;2022-08-19T00:12:40;97663.88;;;19.95;100.00
21431;BME280;10876;49.038;10.608;2022-08-19T00:15:10;97654.75;;;19.91;100.00
21431;BME280;10876;49.038;10.608;2022-08-19T00:17:38;97659.53;;;19.90;100.00
21431;BME280;10876;49.038;10.608;2022-08-19T00:20:06;97668.63;;;19.94;100.00
21431;BME280;10876;49.038;10.608;2022-08-19T00:22:33;97673.41;;;19.94;100.00
21431;BME280;10876;49.038;10.608;2022-08-19T00:25:02;97667.47;;;19.92;100.00
21431;BME280;10876;49.038;10.608;2022-08-19T00:27:29;97674.19;;;19.91;100.00
21431;BME280;10876;49.038;10.608;2022-08-19T00:29:56;97672.63;;;19.90;100.00
21431;BME280;10876;49.038;10.608;2022-08-19T00:32:24;97674.22;;;19.87;100.00
21431;BME280;10876;49.038;10.608;2022-08-19T00:34:51;97668.66;;;19.84;100.00
21431;BME280;10876;49.038;10.608;2022-08-19T00:37:19;97671.03;;;19.82;100.00
21431;BME280;10876;49.038;10.608;2022-08-19T00:39:48;97654.38;;;19.78;100.00
21431;BME280;10876;49.038;10.608;2022-08-19T00:42:18;97649.59;;;19.78;100.00
21431;BME280;10876;49.038;10.608;2022-08-19T00:44:46;97644.84;;;19.75;100.00
21431;BME280;10876;49.038;10.608;2022-08-19T00:47:13;97642.47;;;19.70;100.00
21431;BME280;10876;49.038;10.608;2022-08-19T00:49:43;97642.06;;;19.68;100.00
21431;BME280;10876;49.038;10.608;2022-08-19T00:52:19;97643.25;;;19.71;100.00
21431;BME280;10876;49.038;10.608;2022-08-19T00:54:48;97642.47;;;19.70;100.00
21431;BME280;10876;49.038;10.608;2022-08-19T00:57:22;97640.91;;;19.69;100.00
21431;BME280;10876;49.038;10.608;2022-08-19T00:59:52;97639.28;;;19.68;100.00
21431;BME280;10876;49.038;10.608;2022-08-19T01:02:21;97633.72;;;19.68;100.00
21431;BME280;10876;49.038;10.608;2022-08-19T01:04:48;97636.94;;;19.67;100.00
21431;BME280;10876;49.038;10.608;2022-08-19T01:07:15;97638.91;;;19.66;100.00
21431;BME280;10876;49.038;10.608;2022-08-19T01:09:42;97648.81;;;19.71;100.00
21431;BME280;10876;49.038;10.608;2022-08-19T01:12:09;97645.66;;;19.69;100.00
21431;BME280;10876;49.038;10.608;2022-08-19T01:14:39;97656.75;;;19.72;100.00
21431;BME280;10876;49.038;10.608;2022-08-19T01:17:07;97661.91;;;19.70;100.00
21431;BME280;10876;49.038;10.608;2022-08-19T01:19:38;97664.69;;;19.74;100.00
21431;BME280;10876;49.038;10.608;2022-08-19T01:22:10;97657.53;;;19.76;100.00
21431;BME280;10876;49.038;10.608;2022-08-19T01:24:39;97650.41;;;19.68;100.00
21431;BME280;10876;49.038;10.608;2022-08-19T01:27:07;97651.22;;;19.69;100.00
21431;BME280;10876;49.038;10.608;2022-08-19T01:29:37;97650.41;;;19.68;100.00
21431;BME280;10876;49.038;10.608;2022-08-19T01:32:05;97659.94;;;19.71;100.00
21431;BME280;10876;49.038;10.608;2022-08-19T01:34:32;97652.00;;;19.69;100.00
21431;BME280;10876;49.038;10.608;2022-08-19T01:37:00;97641.69;;;19.66;100.00
21431;BME280;10876;49.038;10.608;2022-08-19T01:39:32;97628.56;;;19.63;100.00
21431;BME280;10876;49.038;10.608;2022-08-19T01:42:00;97626.56;;;19.60;100.00
21431;BME280;10876;49.038;10.608;2022-08-19T01:44:28;97619.03;;;19.50;100.00
21431;BME280;10876;49.038;10.608;2022-08-19T01:46:55;97614.69;;;19.49;100.00
21431;BME280;10876;49.038;10.608;2022-08-19T01:49:24;97621.41;;;19.51;100.00
21431;BME280;10876;49.038;10.608;2022-08-19T01:51:53;97608.34;;;19.52;100.00
21431;BME280;10876;49.038;10.608;2022-08-19T01:54:21;97598.78;;;19.53;100.00
21431;BME280;10876;49.038;10.608;2022-08-19T01:56:49;97605.16;;;19.50;100.00
21431;BME280;10876;49.038;10.608;2022-08-19T01:59:20;97590.47;;;19.53;100.00
21431;BME280;10876;49.038;10.608;2022-08-19T02:01:48;97597.63;;;19.57;100.00
21431;BME280;10876;49.038;10.608;2022-08-19T02:04:15;97601.97;;;19.55;100.00
21431;BME280;10876;49.038;10.608;2022-08-19T02:06:42;97596.03;;;19.53;100.00
21431;BME280;10876;49.038;10.608;2022-08-19T02:09:10;97626.56;;;19.60;100.00
21431;BME280;10876;49.038;10.608;2022-08-19T02:11:37;97638.47;;;19.64;100.00
21431;BME280;10876;49.038;10.608;2022-08-19T02:14:06;97656.75;;;19.65;100.00
21431;BME280;10876;49.038;10.608;2022-08-19T02:16:35;97659.94;;;19.67;100.00
21431;BME280;10876;49.038;10.608;2022-08-19T02:19:03;97652.00;;;19.69;100.00
21431;BME280;10876;49.038;10.608;2022-08-19T02:21:31;97654.38;;;19.71;100.00
21431;BME280;10876;49.038;10.608;2022-08-19T02:23:58;97667.47;;;19.70;100.00
21431;BME280;10876;49.038;10.608;2022-08-19T02:26:25;97674.22;;;19.69;100.00
21431;BME280;10876;49.038;10.608;2022-08-19T02:28:53;97682.16;;;19.67;100.00
21431;BME280;10876;49.038;10.608;2022-08-19T02:31:23;97678.19;;;19.68;100.00
21431;BME280;10876;49.038;10.608;2022-08-19T02:33:52;97692.50;;;19.70;100.00
21431;BME280;10876;49.038;10.608;2022-08-19T02:36:19;97686.13;;;19.70;100.00
21431;BME280;10876;49.038;10.608;2022-08-19T02:38:47;97684.91;;;19.64;100.00
21431;BME280;10876;49.038;10.608;2022-08-19T02:41:16;97664.69;;;19.63;100.00
21431;BME280;10876;49.038;10.608;2022-08-19T02:43:43;97651.56;;;19.60;100.00
21431;BME280;10876;49.038;10.608;2022-08-19T02:46:15;97648.41;;;19.58;100.00
21431;BME280;10876;49.038;10.608;2022-08-19T02:48:47;97648.41;;;19.51;100.00
21431;BME280;10876;49.038;10.608;2022-08-19T02:51:21;97649.59;;;19.39;100.00
21431;BME280;10876;49.038;10.608;2022-08-19T02:53:49;97650.78;;;19.45;100.00
21431;BME280;10876;49.038;10.608;2022-08-19T02:56:16;97650.38;;;19.40;100.00
21431;BME280;10876;49.038;10.608;2022-08-19T02:58:44;97642.47;;;19.38;100.00
21431;BME280;10876;49.038;10.608;2022-08-19T03:01:11;97615.09;;;19.29;100.00
21431;BME280;10876;49.038;10.608;2022-08-19T03:03:45;97624.19;;;19.26;100.00
21431;BME280;10876;49.038;10.608;2022-08-19T03:06:14;97633.69;;;19.25;100.00
21431;BME280;10876;49.038;10.608;2022-08-19T03:08:45;97634.50;;;19.15;100.00
21431;BME280;10876;49.038;10.608;2022-08-19T03:11:14;97645.59;;;19.22;100.00
21431;BME280;10876;49.038;10.608;2022-08-19T03:13:41;97652.34;;;19.25;100.00
21431;BME280;10876;49.038;10.608;2022-08-19T03:16:09;97624.19;;;19.23;100.00
21431;BME280;10876;49.038;10.608;2022-08-19T03:18:37;97615.06;;;19.22;100.00
21431;BME280;10876;49.038;10.608;2022-08-19T03:21:05;97627.38;;;19.21;100.00
21431;BME280;10876;49.038;10.608;2022-08-19T03:23:32;97641.63;;;19.16;100.00
21431;BME280;10876;49.038;10.608;2022-08-19T03:26:03;97630.91;;;19.11;100.00
21431;BME280;10876;49.038;10.608;2022-08-19T03:28:32;97638.88;;;19.09;100.00
21431;BME280;10876;49.038;10.608;2022-08-19T03:31:02;97644.78;;;19.04;100.00
21431;BME280;10876;49.038;10.608;2022-08-19T03:33:30;97608.34;;;19.23;100.00
21431;BME280;10876;49.038;10.608;2022-08-19T03:36:10;97610.69;;;19.14;100.00
21431;BME280;10876;49.038;10.608;2022-08-19T03:38:40;97569.44;;;19.16;100.00
21431;BME280;10876;49.038;10.608;2022-08-19T03:41:11;97577.38;;;19.14;100.00
21431;BME280;10876;49.038;10.608;2022-08-19T03:43:41;97601.97;;;19.19;100.00
21431;BME280;10876;49.038;10.608;2022-08-19T03:46:12;97624.19;;;19.19;100.00
21431;BME280;10876;49.038;10.608;2022-08-19T03:48:41;97655.09;;;19.14;100.00
21431;BME280;10876;49.038;10.608;2022-08-19T03:51:16;97663.84;;;19.12;100.00
21431;BME280;10876;49.038;10.608;2022-08-19T03:53:44;97683.66;;;19.11;100.00
21431;BME280;10876;49.038;10.608;2022-08-19T03:56:29;97641.63;;;19.09;100.00
21431;BME280;10876;49.038;10.608;2022-08-19T03:58:58;97664.63;;;19.06;100.00
21431;BME280;10876;49.038;10.608;2022-08-19T04:01:27;97673.34;;;19.08;100.00
21431;BME280;10876;49.038;10.608;2022-08-19T04:03:56;97685.22;;;19.08;100.00
21431;BME280;10876;49.038;10.608;2022-08-19T04:06:26;97697.16;;;19.09;100.00
21431;BME280;10876;49.038;10.608;2022-08-19T04:08:54;97695.16;;;19.09;100.00
21431;BME280;10876;49.038;10.608;2022-08-19T04:11:23;97690.78;;;19.05;100.00
21431;BME280;10876;49.038;10.608;2022-08-19T04:13:53;97713.81;;;19.09;100.00
21431;BME280;10876;49.038;10.608;2022-08-19T04:16:21;97721.31;;;19.05;100.00
21431;BME280;10876;49.038;10.608;2022-08-19T04:18:49;97720.16;;;19.06;100.00
21431;BME280;10876;49.038;10.608;2022-08-19T04:21:18;97729.66;;;19.05;100.00
21431;BME280;10876;49.038;10.608;2022-08-19T04:23:45;97731.63;;;19.01;100.00
21431;BME280;10876;49.038;10.608;2022-08-19T04:26:13;97732.00;;;19.03;100.00
21431;BME280;10876;49.038;10.608;2022-08-19T04:28:41;97732.84;;;19.07;100.00
21431;BME280;10876;49.038;10.608;2022-08-19T04:31:12;97751.06;;;19.08;100.00
21431;BME280;10876;49.038;10.608;2022-08-19T04:33:40;97749.50;;;19.07;100.00
21431;BME280;10876;49.038;10.608;2022-08-19T04:36:07;97765.34;;;19.10;100.00
21431;BME280;10876;49.038;10.608;2022-08-19T04:38:35;97759.78;;;19.03;100.00
21431;BME280;10876;49.038;10.608;2022-08-19T04:41:03;97766.16;;;19.07;100.00
21431;BME280;10876;49.038;10.608;2022-08-19T04:43:47;97772.50;;;19.11;100.00
21431;BME280;10876;49.038;10.608;2022-08-19T04:46:17;97751.06;;;19.04;100.00
21431;BME280;10876;49.038;10.608;2022-08-19T04:48:45;97755.03;;;19.07;100.00
21431;BME280;10876;49.038;10.608;2022-08-19T04:51:12;97755.84;;;19.07;100.00
21431;BME280;10876;49.038;10.608;2022-08-19T04:53:41;97752.69;;;19.09;100.00
21431;BME280;10876;49.038;10.608;2022-08-19T04:56:10;97762.22;;;19.11;100.00
21431;BME280;10876;49.038;10.608;2022-08-19T04:58:38;97753.47;;;19.13;100.00
21431;BME280;10876;49.038;10.608;2022-08-19T05:01:07;97762.59;;;19.17;100.00
21431;BME280;10876;49.038;10.608;2022-08-19T05:03:37;97767.41;;;19.20;100.00
21431;BME280;10876;49.038;10.608;2022-08-19T05:06:05;97772.53;;;19.22;100.00
21431;BME280;10876;49.038;10.608;2022-08-19T05:08:34;97775.72;;;19.24;100.00
21431;BME280;10876;49.038;10.608;2022-08-19T05:11:08;97792.75;;;19.22;100.00
21431;BME280;10876;49.038;10.608;2022-08-19T05:13:36;97804.28;;;19.24;100.00
21431;BME280;10876;49.038;10.608;2022-08-19T05:16:04;97807.84;;;19.21;100.00
21431;BME280;10876;49.038;10.608;2022-08-19T05:18:31;97813.78;;;19.20;100.00
21431;BME280;10876;49.038;10.608;2022-08-19T05:21:19;97810.59;;;19.18;100.00
21431;BME280;10876;49.038;10.608;2022-08-19T05:24:04;97815.38;;;19.21;100.00
21431;BME280;10876;49.038;10.608;2022-08-19T05:26:34;97827.28;;;19.21;100.00
21431;BME280;10876;49.038;10.608;2022-08-19T05:29:04;97842.34;;;19.20;100.00
21431;BME280;10876;49.038;10.608;2022-08-19T05:31:31;97844.72;;;19.22;100.00
21431;BME280;10876;49.038;10.608;2022-08-19T05:33:58;97836.81;;;19.20;100.00
21431;BME280;10876;49.038;10.608;2022-08-19T05:36:28;97835.97;;;19.20;100.00
21431;BME280;10876;49.038;10.608;2022-08-19T05:38:55;97850.28;;;19.18;100.00
21431;BME280;10876;49.038;10.608;2022-08-19T05:41:22;97841.13;;;19.14;100.00
21431;BME280;10876;49.038;10.608;2022-08-19T05:43:54;97832.41;;;19.19;100.00
21431;BME280;10876;49.038;10.608;2022-08-19T05:46:21;97836.41;;;19.22;100.00
21431;BME280;10876;49.038;10.608;2022-08-19T05:48:48;97840.75;;;19.23;100.00
21431;BME280;10876;49.038;10.608;2022-08-19T05:51:16;97841.56;;;19.23;100.00
21431;BME280;10876;49.038;10.608;2022-08-19T05:53:44;97834.03;;;19.24;100.00
21431;BME280;10876;49.038;10.608;2022-08-19T05:56:14;97824.91;;;19.27;100.00
21431;BME280;10876;49.038;10.608;2022-08-19T05:58:42;97824.91;;;19.27;100.00
21431;BME280;10876;49.038;10.608;2022-08-19T06:01:12;97840.81;;;19.30;100.00
21431;BME280;10876;49.038;10.608;2022-08-19T06:03:39;97840.38;;;19.31;100.00
21431;BME280;10876;49.038;10.608;2022-08-19T06:06:07;97844.78;;;19.36;100.00
21431;BME280;10876;49.038;10.608;2022-08-19T06:08:35;97844.78;;;19.32;100.00
21431;BME280;10876;49.038;10.608;2022-08-19T06:11:17;97843.22;;;19.35;100.00
21431;BME280;10876;49.038;10.608;2022-08-19T06:13:45;97855.09;;;19.39;100.00
21431;BME280;10876;49.038;10.608;2022-08-19T06:16:16;97840.81;;;19.33;100.00
21431;BME280;10876;49.038;10.608;2022-08-19T06:18:48;97841.22;;;19.35;100.00
21431;BME280;10876;49.038;10.608;2022-08-19T06:21:18;97836.88;;;19.42;100.00
21431;BME280;10876;49.038;10.608;2022-08-19T06:23:45;97833.72;;;19.47;100.00
21431;BME280;10876;49.038;10.608;2022-08-19T06:26:16;97814.66;;;19.45;100.00
21431;BME280;10876;49.038;10.608;2022-08-19T06:28:44;97807.53;;;19.48;100.00
21431;BME280;10876;49.038;10.608;2022-08-19T06:31:13;97801.97;;;19.41;100.00
21431;BME280;10876;49.038;10.608;2022-08-19T06:33:42;97799.59;;;19.46;100.00
21431;BME280;10876;49.038;10.608;2022-08-19T06:36:16;97788.44;;;19.35;100.00
21431;BME280;10876;49.038;10.608;2022-08-19T06:38:43;97774.97;;;19.38;100.00
21431;BME280;10876;49.038;10.608;2022-08-19T06:41:10;97778.91;;;19.36;100.00
21431;BME280;10876;49.038;10.608;2022-08-19T06:43:38;97787.66;;;19.46;100.00
21431;BME280;10876;49.038;10.608;2022-08-19T06:46:10;97775.00;;;19.52;100.00
21431;BME280;10876;49.038;10.608;2022-08-19T06:48:38;97774.22;;;19.55;100.00
21431;BME280;10876;49.038;10.608;2022-08-19T06:51:05;97778.16;;;19.54;100.00
21431;BME280;10876;49.038;10.608;2022-08-19T06:53:33;97774.97;;;19.48;100.00
21431;BME280;10876;49.038;10.608;2022-08-19T06:56:00;97772.59;;;19.47;100.00
21431;BME280;10876;49.038;10.608;2022-08-19T06:58:28;97771.81;;;19.50;100.00
21431;BME280;10876;49.038;10.608;2022-08-19T07:00:59;97782.56;;;19.55;100.00
21431;BME280;10876;49.038;10.608;2022-08-19T07:03:29;97791.25;;;19.50;100.00
21431;BME280;10876;49.038;10.608;2022-08-19T07:05:58;97790.88;;;19.55;100.00
21431;BME280;10876;49.038;10.608;2022-08-19T07:08:25;97792.47;;;19.59;100.00
21431;BME280;10876;49.038;10.608;2022-08-19T07:10:53;97792.09;;;19.61;100.00
21431;BME280;10876;49.038;10.608;2022-08-19T07:13:20;97804.44;;;19.67;100.00
21431;BME280;10876;49.038;10.608;2022-08-19T07:15:48;97802.06;;;19.69;100.00
21431;BME280;10876;49.038;10.608;2022-08-19T07:18:18;97814.75;;;19.70;100.00
21431;BME280;10876;49.038;10.608;2022-08-19T07:20:45;97807.63;;;19.73;100.00
21431;BME280;10876;49.038;10.608;2022-08-19T07:23:13;97816.34;;;19.68;100.00
21431;BME280;10876;49.038;10.608;2022-08-19T07:25:40;97813.97;;;19.66;100.00
21431;BME280;10876;49.038;10.608;2022-08-19T07:28:08;97825.06;;;19.73;100.00
21431;BME280;10876;49.038;10.608;2022-08-19T07:30:38;97840.97;;;19.76;100.00
21431;BME280;10876;49.038;10.608;2022-08-19T07:33:06;97824.69;;;19.82;100.00
21431;BME280;10876;49.038;10.608;2022-08-19T07:35:34;97818.72;;;19.76;100.00
21431;BME280;10876;49.038;10.608;2022-08-19T07:38:01;97818.34;;;19.82;100.00
21431;BME280;10876;49.038;10.608;2022-08-19T07:40:30;97804.84;;;19.76;100.00
21431;BME280;10876;49.038;10.608;2022-08-19T07:42:57;97795.72;;;19.76;100.00
21431;BME280;10876;49.038;10.608;2022-08-19T07:45:24;97786.56;;;19.68;100.00
21431;BME280;10876;49.038;10.608;2022-08-19T07:47:52;97776.22;;;19.58;100.00
21431;BME280;10876;49.038;10.608;2022-08-19T07:50:20;97772.63;;;19.61;100.00
21431;BME280;10876;49.038;10.608;2022-08-19T07:52:49;97764.72;;;19.63;100.00
21431;BME280;10876;49.038;10.608;2022-08-19T07:55:19;97778.59;;;19.63;100.00
21431;BME280;10876;49.038;10.608;2022-08-19T07:57:47;97776.63;;;19.71;100.00
21431;BME280;10876;49.038;10.608;2022-08-19T08:00:14;97736.94;;;19.70;100.00
21431;BME280;10876;49.038;10.608;2022-08-19T08:02:41;97730.59;;;19.66;100.00
21431;BME280;10876;49.038;10.608;2022-08-19T08:05:09;97736.94;;;19.70;100.00
21431;BME280;10876;49.038;10.608;2022-08-19T08:07:55;97739.31;;;19.68;100.00
21431;BME280;10876;49.038;10.608;2022-08-19T08:10:39;97749.63;;;19.71;100.00
21431;BME280;10876;49.038;10.608;2022-08-19T08:13:07;97748.88;;;19.74;100.00
21431;BME280;10876;49.038;10.608;2022-08-19T08:15:34;97761.56;;;19.79;100.00
21431;BME280;10876;49.038;10.608;2022-08-19T08:18:02;97770.72;;;19.87;100.00
21431;BME280;10876;49.038;10.608;2022-08-19T08:20:29;97780.63;;;19.88;100.00
21431;BME280;10876;49.038;10.608;2022-08-19T08:22:58;97793.34;;;19.96;100.00
21431;BME280;10876;49.038;10.608;2022-08-19T08:25:42;97810.03;;;20.07;100.00
21431;BME280;10876;49.038;10.608;2022-08-19T08:28:09;97825.13;;;20.13;100.00
21431;BME280;10876;49.038;10.608;2022-08-19T08:30:36;97839.41;;;20.11;100.00
21431;BME280;10876;49.038;10.608;2022-08-19T08:33:07;97854.53;;;20.28;100.00
21431;BME280;10876;49.038;10.608;2022-08-19T08:35:34;97859.28;;;20.42;100.00
21431;BME280;10876;49.038;10.608;2022-08-19T08:38:03;97878.38;;;20.47;100.00
21431;BME280;10876;49.038;10.608;2022-08-19T08:40:37;97894.25;;;20.43;100.00
21431;BME280;10876;49.038;10.608;2022-08-19T08:43:09;97896.66;;;20.48;100.00
21431;BME280;10876;49.038;10.608;2022-08-19T08:45:43;97917.34;;;20.54;100.00
21431;BME280;10876;49.038;10.608;2022-08-19T08:48:19;97919.34;;;20.57;100.00
21431;BME280;10876;49.038;10.608;2022-08-19T08:50:48;97935.66;;;20.55;100.00
21431;BME280;10876;49.038;10.608;2022-08-19T08:53:20;97955.50;;;20.57;100.00
21431;BME280;10876;49.038;10.608;2022-08-19T08:55:48;97967.44;;;20.54;100.00
21431;BME280;10876;49.038;10.608;2022-08-19T08:58:20;97981.78;;;20.63;100.00
21431;BME280;10876;49.038;10.608;2022-08-19T09:00:52;97998.47;;;20.63;100.00
21431;BME280;10876;49.038;10.608;2022-08-19T09:03:20;97995.28;;;20.65;100.00
21431;BME280;10876;49.038;10.608;2022-08-19T09:05:56;98009.97;;;20.65;100.00
21431;BME280;10876;49.038;10.608;2022-08-19T09:08:40;98031.47;;;20.68;100.00
21431;BME280;10876;49.038;10.608;2022-08-19T09:11:14;98043.78;;;20.67;100.00
21431;BME280;10876;49.038;10.608;2022-08-19T09:13:52;98063.66;;;20.62;100.00
21431;BME280;10876;49.038;10.608;2022-08-19T09:16:26;98066.84;;;20.61;100.00
21431;BME280;10876;49.038;10.608;2022-08-19T09:18:55;98079.56;;;20.58;100.00
21431;BME280;10876;49.038;10.608;2022-08-19T09:21:24;98080.34;;;20.55;100.00
21431;BME280;10876;49.038;10.608;2022-08-19T09:23:54;98089.44;;;20.48;100.00
21431;BME280;10876;49.038;10.608;2022-08-19T09:26:23;98097.78;;;20.48;100.00
21431;BME280;10876;49.038;10.608;2022-08-19T09:28:51;98100.97;;;20.47;100.00
21431;BME280;10876;49.038;10.608;2022-08-19T09:31:21;98097.75;;;20.38;100.00
21431;BME280;10876;49.038;10.608;2022-08-19T09:33:49;98092.19;;;20.45;100.00
21431;BME280;10876;49.038;10.608;2022-08-19T09:36:18;98093.41;;;20.51;100.00
21431;BME280;10876;49.038;10.608;2022-08-19T09:38:46;98097.41;;;20.50;100.00
21431;BME280;10876;49.038;10.608;2022-08-19T09:41:17;98101.75;;;20.51;100.00
21431;BME280;10876;49.038;10.608;2022-08-19T09:43:49;98111.31;;;20.50;100.00
21431;BME280;10876;49.038;10.608;2022-08-19T09:46:18;98109.34;;;20.54;100.00
21431;BME280;10876;49.038;10.608;2022-08-19T09:48:47;98124.88;;;20.55;100.00
21431;BME280;10876;49.038;10.608;2022-08-19T09:51:18;98119.31;;;20.62;100.00
21431;BME280;10876;49.038;10.608;2022-08-19T09:53:47;98124.47;;;20.57;100.00
21431;BME280;10876;49.038;10.608;2022-08-19T09:56:17;98130.03;;;20.57;100.00
21431;BME280;10876;49.038;10.608;2022-08-19T09:58:45;98136.81;;;20.59;100.00
21431;BME280;10876;49.038;10.608;2022-08-19T10:01:16;98155.50;;;20.62;100.00
21431;BME280;10876;49.038;10.608;2022-08-19T10:03:47;98155.50;;;20.55;100.00
21431;BME280;10876;49.038;10.608;2022-08-19T10:06:14;98184.44;;;20.51;100.00
21431;BME280;10876;49.038;10.608;2022-08-19T10:08:41;98190.81;;;20.51;100.00
21431;BME280;10876;49.038;10.608;2022-08-19T10:11:09;98182.44;;;20.44;100.00
21431;BME280;10876;49.038;10.608;2022-08-19T10:13:38;98191.59;;;20.48;100.00
21431;BME280;10876;49.038;10.608;2022-08-19T10:16:07;98191.56;;;20.41;100.00
21431;BME280;10876;49.038;10.608;2022-08-19T10:18:35;98194.75;;;20.43;100.00
21431;BME280;10876;49.038;10.608;2022-08-19T10:21:06;98204.28;;;20.45;100.00
21431;BME280;10876;49.038;10.608;2022-08-19T10:23:35;98202.34;;;20.50;100.00
21431;BME280;10876;49.038;10.608;2022-08-19T10:26:03;98210.72;;;20.53;100.00
21431;BME280;10876;49.038;10.608;2022-08-19T10:28:32;98221.00;;;20.45;100.00
21431;BME280;10876;49.038;10.608;2022-08-19T10:31:05;98226.53;;;20.42;100.00
21431;BME280;10876;49.038;10.608;2022-08-19T10:33:33;98225.34;;;20.43;100.00
21431;BME280;10876;49.038;10.608;2022-08-19T10:36:00;98225.34;;;20.43;100.00
21431;BME280;10876;49.038;10.608;2022-08-19T10:38:28;98221.81;;;20.46;100.00
21431;BME280;10876;49.038;10.608;2022-08-19T10:40:57;98238.09;;;20.47;100.00
21431;BME280;10876;49.038;10.608;2022-08-19T10:43:24;98236.09;;;20.41;100.00
21431;BME280;10876;49.038;10.608;2022-08-19T10:45:54;98236.09;;;20.41;100.00
21431;BME280;10876;49.038;10.608;2022-08-19T10:48:26;98244.78;;;20.36;100.00
21431;BME280;10876;49.038;10.608;2022-08-19T10:50:52;98247.59;;;20.39;100.00
21431;BME280;10876;49.038;10.608;2022-08-19T10:53:37;98245.22;;;20.38;100.00
21431;BME280;10876;49.038;10.608;2022-08-19T10:56:05;98247.56;;;20.36;100.00
21431;BME280;10876;49.038;10.608;2022-08-19T10:58:49;98247.16;;;20.34;100.00
21431;BME280;10876;49.038;10.608;2022-08-19T11:01:16;98240.00;;;20.33;100.00
21431;BME280;10876;49.038;10.608;2022-08-19T11:03:44;98233.59;;;20.29;100.00
21431;BME280;10876;49.038;10.608;2022-08-19T11:06:12;98234.44;;;20.29;100.00
21431;BME280;10876;49.038;10.608;2022-08-19T11:08:39;98232.03;;;20.28;100.00
21431;BME280;10876;49.038;10.608;2022-08-19T11:11:07;98230.03;;;20.28;100.00
21431;BME280;10876;49.038;10.608;2022-08-19T11:13:37;98228.47;;;20.31;100.00
21431;BME280;10876;49.038;10.608;2022-08-19T11:16:06;98218.13;;;20.28;100.00
21431;BME280;10876;49.038;10.608;2022-08-19T11:18:35;98217.69;;;20.25;100.00
21431;BME280;10876;49.038;10.608;2022-08-19T11:21:09;98213.75;;;20.27;100.00
21431;BME280;10876;49.038;10.608;2022-08-19T11:23:36;98208.97;;;20.27;100.00
21431;BME280;10876;49.038;10.608;2022-08-19T11:26:03;98209.41;;;20.29;100.00
21431;BME280;10876;49.038;10.608;2022-08-19T11:28:30;98192.28;;;20.23;100.00
21431;BME280;10876;49.038;10.608;2022-08-19T11:30:57;98191.50;;;20.27;100.00
21431;BME280;10876;49.038;10.608;2022-08-19T11:33:24;98178.81;;;20.33;100.00
21431;BME280;10876;49.038;10.608;2022-08-19T11:35:52;98170.09;;;20.38;100.00
21431;BME280;10876;49.038;10.608;2022-08-19T11:38:21;98166.03;;;20.17;100.00
21431;BME280;10876;49.038;10.608;2022-08-19T11:40:54;98162.38;;;20.06;100.00
21431;BME280;10876;49.038;10.608;2022-08-19T11:43:21;98153.59;;;20.00;100.00
21431;BME280;10876;49.038;10.608;2022-08-19T11:45:48;98149.91;;;19.86;100.00
21431;BME280;10876;49.038;10.608;2022-08-19T11:48:15;98153.00;;;19.73;100.00
21431;BME280;10876;49.038;10.608;2022-08-19T11:50:47;98140.16;;;19.58;100.00
21431;BME280;10876;49.038;10.608;2022-08-19T11:53:14;98148.78;;;19.46;100.00
21431;BME280;10876;49.038;10.608;2022-08-19T11:55:43;98160.28;;;19.41;100.00
21431;BME280;10876;49.038;10.608;2022-08-19T11:58:10;98173.63;;;19.28;100.00
21431;BME280;10876;49.038;10.608;2022-08-19T12:00:38;98215.31;;;19.31;100.00
21431;BME280;10876;49.038;10.608;2022-08-19T12:03:05;98192.34;;;19.34;100.00
21431;BME280;10876;49.038;10.608;2022-08-19T12:05:32;98163.69;;;19.23;100.00
21431;BME280;10876;49.038;10.608;2022-08-19T12:07:59;98193.09;;;19.31;100.00
21431;BME280;10876;49.038;10.608;2022-08-19T12:10:26;98168.47;;;19.26;100.00
21431;BME280;10876;49.038;10.608;2022-08-19T12:12:54;98272.81;;;19.27;100.00
21431;BME280;10876;49.038;10.608;2022-08-19T12:15:21;98339.00;;;19.22;100.00
21431;BME280;10876;49.038;10.608;2022-08-19T12:17:48;98286.22;;;19.18;100.00
21431;BME280;10876;49.038;10.608;2022-08-19T12:20:15;98342.50;;;19.15;100.00
21431;BME280;10876;49.038;10.608;2022-08-19T12:22:45;98400.84;;;19.19;100.00
21431;BME280;10876;49.038;10.608;2022-08-19T12:25:21;98404.34;;;19.12;100.00
21431;BME280;10876;49.038;10.608;2022-08-19T12:27:50;98702.31;;;19.16;100.00
21431;BME280;10876;49.038;10.608;2022-08-19T12:30:19;98830.72;;;19.09;100.00
21431;BME280;10876;49.038;10.608;2022-08-19T12:32:46;98934.56;;;19.05;100.00
21431;BME280;10876;49.038;10.608;2022-08-19T12:35:12;99047.34;;;19.09;100.00
21431;BME280;10876;49.038;10.608;2022-08-19T12:37:40;99176.59;;;19.07;100.00
21431;BME280;10876;49.038;10.608;2022-08-19T12:40:10;99282.94;;;19.07;100.00
21431;BME280;10876;49.038;10.608;2022-08-19T12:42:38;107704.66;;;19.02;100.00
21431;BME280;10876;49.038;10.608;2022-08-19T12:45:10;107633.28;;;19.11;100.00
21431;BME280;10876;49.038;10.608;2022-08-19T12:47:40;107639.59;;;19.13;100.00
21431;BME280;10876;49.038;10.608;2022-08-19T12:50:08;107421.00;;;19.09;93.67